createdAt,value
2022-09-30T00:01:47.450Z,99927.28
2022-09-30T00:04:18.100Z,99925.55
2022-09-30T00:06:48.065Z,99919.48
2022-09-30T00:09:16.849Z,99911.70
2022-09-30T00:11:46.156Z,99916.87
2022-09-30T00:14:17.038Z,99915.98
2022-09-30T00:16:46.201Z,99918.60
2022-09-30T00:19:15.522Z,99918.63
2022-09-30T00:21:44.189Z,99922.91
2022-09-30T00:24:13.063Z,99924.64
2022-09-30T00:26:41.592Z,99928.08
2022-09-30T00:29:10.902Z,99922.91
2022-09-30T00:31:40.181Z,99933.20
2022-09-30T00:34:10.682Z,99916.84
2022-09-30T00:36:43.355Z,99930.56
2022-09-30T00:39:14.206Z,99941.73
2022-09-30T00:41:43.186Z,99937.45
2022-09-30T00:44:58.975Z,99932.30
2022-09-30T00:47:40.885Z,99926.25
2022-09-30T00:50:35.859Z,99924.55
2022-09-30T00:53:08.296Z,99923.70
2022-09-30T00:55:53.491Z,99929.72
2022-09-30T00:58:29.088Z,99920.21
2022-09-30T01:00:59.782Z,99928.80
2022-09-30T01:03:31.073Z,99934.81
2022-09-30T01:05:59.688Z,99932.23
2022-09-30T01:08:31.042Z,99928.80
2022-09-30T01:10:59.556Z,99931.38
2022-09-30T01:13:32.050Z,99920.21
2022-09-30T01:16:24.075Z,99925.41
2022-09-30T01:19:05.884Z,99921.97
2022-09-30T01:21:59.387Z,99919.39
2022-09-30T01:24:56.246Z,99927.16
2022-09-30T01:27:50.472Z,99925.47
2022-09-30T01:30:23.672Z,99926.31
2022-09-30T01:33:21.854Z,99936.64
2022-09-30T01:36:17.984Z,99935.79
2022-09-30T01:38:55.113Z,99934.91
2022-09-30T01:41:32.937Z,99943.53
2022-09-30T01:44:13.494Z,99951.28
2022-09-30T01:46:46.820Z,99946.11
2022-09-30T01:49:30.728Z,99948.70
2022-09-30T01:52:05.682Z,99949.55
2022-09-30T01:54:42.224Z,99945.27
2022-09-30T01:57:18.296Z,99959.87
2022-09-30T01:59:52.706Z,99954.70
2022-09-30T02:02:27.047Z,99964.19
2022-09-30T02:05:00.844Z,99958.98
2022-09-30T02:07:34.180Z,99956.34
2022-09-30T02:10:13.866Z,99961.43
2022-09-30T02:12:47.566Z,99970.02
2022-09-30T02:15:22.571Z,99969.98
2022-09-30T02:18:01.090Z,99979.41
2022-09-30T02:20:34.637Z,99981.10
2022-09-30T02:23:10.428Z,99990.55
2022-09-30T02:25:43.570Z,99981.10
2022-09-30T02:28:17.898Z,99988.84
2022-09-30T02:30:47.092Z,99989.73
2022-09-30T02:33:22.267Z,99993.20
2022-09-30T02:35:57.429Z,99997.52
2022-09-30T02:38:33.950Z,99994.05
2022-09-30T02:41:07.434Z,99995.73
2022-09-30T02:43:36.322Z,99999.16
2022-09-30T02:46:10.488Z,100002.59
2022-09-30T02:48:42.839Z,100000.86
2022-09-30T02:51:19.905Z,99999.97
2022-09-30T02:54:00.359Z,100007.70
2022-09-30T02:56:43.200Z,100017.09
2022-09-30T02:59:12.356Z,100007.62
2022-09-30T03:01:41.583Z,100000.64
2022-09-30T03:04:14.145Z,100003.21
2022-09-30T03:06:43.273Z,100004.02
2022-09-30T03:09:11.967Z,100008.33
2022-09-30T03:11:41.036Z,100004.90
2022-09-30T03:14:22.013Z,99996.23
2022-09-30T03:17:15.795Z,99998.80
2022-09-30T03:20:05.706Z,99997.88
2022-09-30T03:22:51.084Z,100008.23
2022-09-30T03:25:32.630Z,100022.02
2022-09-30T03:28:16.314Z,100029.80
2022-09-30T03:30:51.623Z,100029.00
2022-09-30T03:33:25.840Z,100026.42
2022-09-30T03:35:58.141Z,100021.27
2022-09-30T03:38:36.732Z,100022.95
2022-09-30T03:41:12.414Z,100023.80
2022-09-30T03:43:47.089Z,100023.80
2022-09-30T03:46:28.217Z,100022.95
2022-09-30T03:49:00.690Z,100018.65
2022-09-30T03:51:30.579Z,100019.53
2022-09-30T03:54:00.099Z,100014.38
2022-09-30T03:56:31.167Z,100023.01
2022-09-30T03:59:00.257Z,100025.62
2022-09-30T04:01:28.877Z,100020.48
2022-09-30T04:03:57.321Z,100022.20
2022-09-30T04:06:25.901Z,100030.84
2022-09-30T04:08:54.585Z,100031.68
2022-09-30T04:11:23.931Z,100032.56
2022-09-30T04:13:52.601Z,100039.42
2022-09-30T04:16:22.534Z,100037.69
2022-09-30T04:18:51.317Z,100050.58
2022-09-30T04:21:19.812Z,100054.89
2022-09-30T04:23:49.214Z,100054.05
2022-09-30T04:26:19.506Z,100060.05
2022-09-30T04:28:48.232Z,100063.42
2022-09-30T04:31:17.260Z,100065.95
2022-09-30T04:33:47.405Z,100060.70
2022-09-30T04:36:16.383Z,100070.12
2022-09-30T04:38:45.022Z,100074.42
2022-09-30T04:41:17.451Z,100073.58
2022-09-30T04:43:47.271Z,100081.31
2022-09-30T04:46:17.063Z,100089.91
2022-09-30T04:49:06.608Z,100089.11
2022-09-30T04:51:38.955Z,100088.27
2022-09-30T04:54:10.703Z,100079.73
2022-09-30T04:56:39.353Z,100083.20
2022-09-30T04:59:07.987Z,100088.42
2022-09-30T05:01:36.777Z,100098.78
2022-09-30T05:04:05.754Z,100105.69
2022-09-30T05:06:34.356Z,100108.36
2022-09-30T05:09:03.101Z,100109.26
2022-09-30T05:11:32.355Z,100114.50
2022-09-30T05:14:01.217Z,100117.14
2022-09-30T05:16:29.888Z,100116.34
2022-09-30T05:18:58.511Z,100106.06
2022-09-30T05:21:28.022Z,100106.11
2022-09-30T05:23:56.654Z,100100.14
2022-09-30T05:26:25.387Z,100103.65
2022-09-30T05:28:54.033Z,100096.80
2022-09-30T05:31:23.505Z,100097.72
2022-09-30T05:33:57.891Z,100102.92
2022-09-30T05:36:27.264Z,100110.71
2022-09-30T05:38:56.173Z,100109.90
2022-09-30T05:41:24.981Z,100115.10
2022-09-30T05:43:54.677Z,100119.45
2022-09-30T05:46:25.841Z,100111.74
2022-09-30T05:48:55.033Z,100122.11
2022-09-30T05:51:25.227Z,100116.13
2022-09-30T05:53:54.014Z,100127.38
2022-09-30T05:56:24.993Z,100121.36
2022-09-30T05:58:53.866Z,100124.86
2022-09-30T06:01:23.683Z,100134.34
2022-09-30T06:03:52.160Z,100135.23
2022-09-30T06:06:20.670Z,100149.92
2022-09-30T06:08:50.322Z,100147.36
2022-09-30T06:11:25.080Z,100137.05
2022-09-30T06:13:53.632Z,100142.25
2022-09-30T06:16:24.443Z,100140.55
2022-09-30T06:18:53.878Z,100137.11
2022-09-30T06:21:23.793Z,100138.87
2022-09-30T06:23:52.460Z,100150.09
2022-09-30T06:26:20.912Z,100162.20
2022-09-30T06:28:51.298Z,100166.55
2022-09-30T06:31:20.121Z,100168.30
2022-09-30T06:33:51.947Z,100163.16
2022-09-30T06:36:20.420Z,100158.00
2022-09-30T06:38:54.123Z,100152.86
2022-09-30T06:41:28.333Z,100151.14
2022-09-30T06:44:03.081Z,100158.09
2022-09-30T06:46:37.534Z,100159.00
2022-09-30T06:49:23.595Z,100164.27
2022-09-30T06:51:52.327Z,100167.80
2022-09-30T06:54:21.362Z,100167.83
2022-09-30T06:56:53.363Z,100170.44
2022-09-30T06:59:23.415Z,100162.71
2022-09-30T07:01:52.330Z,100167.90
2022-09-30T07:04:22.855Z,100168.78
2022-09-30T07:06:51.305Z,100165.33
2022-09-30T07:09:22.998Z,100172.24
2022-09-30T07:11:51.791Z,100169.64
2022-09-30T07:14:23.550Z,100173.95
2022-09-30T07:16:52.916Z,100176.53
2022-09-30T07:19:23.458Z,100167.02
2022-09-30T07:21:52.074Z,100174.73
2022-09-30T07:24:20.580Z,100174.60
2022-09-30T07:26:50.622Z,100188.42
2022-09-30T07:29:36.640Z,100173.63
2022-09-30T07:32:19.096Z,100185.64
2022-09-30T07:34:51.157Z,100184.66
2022-09-30T07:37:21.203Z,100189.72
2022-09-30T07:39:54.876Z,100189.63
2022-09-30T07:42:25.772Z,100193.03
2022-09-30T07:44:56.833Z,100192.11
2022-09-30T07:47:25.895Z,100201.59
2022-09-30T07:49:54.774Z,100199.84
2022-09-30T07:52:26.626Z,100198.94
2022-09-30T07:54:55.331Z,100206.69
2022-09-30T07:57:25.844Z,100201.37
2022-09-30T07:59:54.717Z,100207.27
2022-09-30T08:02:26.900Z,100213.20
2022-09-30T08:04:55.677Z,100226.70
2022-09-30T08:07:25.598Z,100224.79
2022-09-30T08:09:59.869Z,100228.27
2022-09-30T08:12:28.482Z,100226.61
2022-09-30T08:15:00.493Z,100222.24
2022-09-30T08:17:30.296Z,100217.06
2022-09-30T08:20:01.427Z,100217.91
2022-09-30T08:22:30.376Z,100222.19
2022-09-30T08:25:01.500Z,100227.39
2022-09-30T08:27:30.440Z,100233.42
2022-09-30T08:30:04.227Z,100229.06
2022-09-30T08:32:33.681Z,100229.03
2022-09-30T08:35:06.088Z,100233.33
2022-09-30T08:37:34.811Z,100226.33
2022-09-30T08:40:04.359Z,100232.36
2022-09-30T08:42:52.939Z,100241.81
2022-09-30T08:45:39.780Z,100245.98
2022-09-30T08:48:35.201Z,100238.86
2022-09-30T08:51:20.423Z,100239.61
2022-09-30T08:53:49.575Z,100236.95
2022-09-30T08:56:24.639Z,100244.82
2022-09-30T08:58:56.949Z,100243.87
2022-09-30T09:01:33.380Z,100250.73
2022-09-30T09:04:04.436Z,100251.54
2022-09-30T09:06:43.114Z,100250.59
2022-09-30T09:09:42.190Z,100260.95
2022-09-30T09:12:23.029Z,100253.00
2022-09-30T09:15:03.664Z,100259.06
2022-09-30T09:18:22.034Z,100254.66
2022-09-30T09:20:57.452Z,100255.38
2022-09-30T09:23:31.373Z,100255.25
2022-09-30T09:26:04.670Z,100261.23
2022-09-30T09:28:41.793Z,100256.73
2022-09-30T09:31:16.779Z,100260.94
2022-09-30T09:33:52.316Z,100258.11
2022-09-30T09:36:41.319Z,100248.36
2022-09-30T09:39:21.596Z,100249.91
2022-09-30T09:42:03.502Z,100247.94
2022-09-30T09:44:41.231Z,100251.16
2022-09-30T09:47:14.695Z,100243.11
2022-09-30T09:49:45.515Z,100245.58
2022-09-30T09:52:58.366Z,100243.69
2022-09-30T09:55:29.140Z,100240.89
2022-09-30T09:58:13.398Z,100241.52
2022-09-30T10:01:10.989Z,100236.89
2022-09-30T10:03:42.896Z,100235.52
2022-09-30T10:06:12.659Z,100229.02
2022-09-30T10:08:54.632Z,100231.28
2022-09-30T10:11:29.840Z,100223.96
2022-09-30T10:14:04.101Z,100219.48
2022-09-30T10:16:37.670Z,100220.18
2022-09-30T10:19:23.769Z,100226.24
2022-09-30T10:22:16.559Z,100224.39
2022-09-30T10:24:45.425Z,100223.37
2022-09-30T10:27:31.169Z,100233.80
2022-09-30T10:30:00.133Z,100234.55
2022-09-30T10:32:31.754Z,100237.69
2022-09-30T10:35:05.874Z,100241.84
2022-09-30T10:37:34.914Z,100236.48
2022-09-30T10:40:09.456Z,100235.23
2022-09-30T10:42:43.809Z,100245.53
2022-09-30T10:45:27.241Z,100242.75
2022-09-30T10:47:56.837Z,100244.34
2022-09-30T10:50:28.776Z,100244.20
2022-09-30T10:53:01.684Z,100244.08
2022-09-30T10:55:33.852Z,100242.22
2022-09-30T10:58:28.409Z,100238.55
2022-09-30T11:01:04.757Z,100242.90
2022-09-30T11:03:46.112Z,100246.40
2022-09-30T11:06:15.109Z,100243.92
2022-09-30T11:08:51.448Z,100243.23
2022-09-30T11:11:28.847Z,100244.14
2022-09-30T11:14:07.910Z,100246.00
2022-09-30T11:16:47.634Z,100245.26
2022-09-30T11:19:29.565Z,100247.06
2022-09-30T11:22:14.217Z,100245.48
2022-09-30T11:24:46.123Z,100247.34
2022-09-30T11:27:22.957Z,100247.45
2022-09-30T11:30:05.062Z,100244.84
2022-09-30T11:32:51.069Z,100241.40
2022-09-30T11:35:39.881Z,100238.06
2022-09-30T11:38:27.123Z,100238.91
2022-09-30T11:41:08.402Z,100245.06
2022-09-30T11:43:53.134Z,100244.21
2022-09-30T11:46:46.576Z,100235.47
2022-09-30T11:49:59.046Z,100240.71
2022-09-30T11:52:35.891Z,100246.78
2022-09-30T11:55:29.443Z,100244.21
2022-09-30T11:58:22.266Z,100238.06
2022-09-30T12:01:05.301Z,100245.80
2022-09-30T12:03:43.930Z,100245.75
2022-09-30T12:06:29.026Z,100247.52
2022-09-30T12:09:03.591Z,100243.13
2022-09-30T12:11:40.124Z,100239.52
2022-09-30T12:14:17.659Z,100244.69
2022-09-30T12:16:50.801Z,100242.85
2022-09-30T12:19:25.967Z,100238.48
2022-09-30T12:21:59.993Z,100241.05
2022-09-30T12:24:32.573Z,100236.77
2022-09-30T12:27:02.335Z,100235.92
2022-09-30T12:29:54.935Z,100241.88
2022-09-30T12:32:55.597Z,100240.97
2022-09-30T12:35:49.499Z,100236.57
2022-09-30T12:38:38.449Z,100233.84
2022-09-30T12:41:32.224Z,100238.08
2022-09-30T12:44:40.560Z,100228.48
2022-09-30T12:47:22.954Z,100232.89
2022-09-30T12:49:57.704Z,100229.22
2022-09-30T12:52:32.424Z,100234.35
2022-09-30T12:55:09.212Z,100231.73
2022-09-30T12:57:46.703Z,100237.09
2022-09-30T13:00:29.109Z,100231.11
2022-09-30T13:03:05.048Z,100229.44
2022-09-30T13:05:58.736Z,100226.68
2022-09-30T13:09:04.919Z,100219.66
2022-09-30T13:11:41.870Z,100216.10
2022-09-30T13:14:37.531Z,100226.48
2022-09-30T13:17:28.176Z,100225.70
2022-09-30T13:19:58.607Z,100217.77
2022-09-30T13:22:43.189Z,100223.97
2022-09-30T13:25:16.083Z,100224.88
2022-09-30T13:27:47.373Z,100221.38
2022-09-30T13:30:41.716Z,100219.66
2022-09-30T13:33:45.992Z,100218.89
2022-09-30T13:36:26.499Z,100218.95
2022-09-30T13:39:23.565Z,100225.92
2022-09-30T13:42:06.188Z,100218.89
2022-09-30T13:44:44.147Z,100212.80
2022-09-30T13:47:22.273Z,100220.81
2022-09-30T13:50:06.217Z,100218.27
2022-09-30T13:52:37.981Z,100214.94
2022-09-30T13:55:16.267Z,100212.40
2022-09-30T13:58:00.020Z,100213.38
2022-09-30T14:00:47.600Z,100212.67
2022-09-30T14:03:44.235Z,100211.03
2022-09-30T14:06:23.810Z,100212.83
2022-09-30T14:09:26.632Z,100219.93
2022-09-30T14:12:23.237Z,100217.46
2022-09-30T14:15:28.981Z,100221.00
2022-09-30T14:18:24.240Z,100220.29
2022-09-30T14:21:10.808Z,100218.64
2022-09-30T14:23:39.881Z,100224.86
2022-09-30T14:26:29.744Z,100230.20
2022-09-30T14:29:05.096Z,100232.84
2022-09-30T14:31:48.151Z,100226.84
2022-09-30T14:34:22.313Z,100231.36
2022-09-30T14:36:53.435Z,100233.16
2022-09-30T14:39:33.201Z,100226.27
2022-09-30T14:42:03.838Z,100235.91
2022-09-30T14:44:43.040Z,100239.44
2022-09-30T14:47:26.152Z,100232.52
2022-09-30T14:49:55.287Z,100230.80
2022-09-30T14:52:43.015Z,100243.13
2022-09-30T14:55:26.463Z,100237.05
2022-09-30T14:58:17.808Z,100238.84
2022-09-30T15:00:49.981Z,100236.34
2022-09-30T15:03:19.204Z,100236.45
2022-09-30T15:05:48.392Z,100236.52
2022-09-30T15:08:21.212Z,100231.34
2022-09-30T15:10:54.734Z,100235.77
2022-09-30T15:13:28.587Z,100234.16
2022-09-30T15:16:00.289Z,100243.00
2022-09-30T15:18:32.649Z,100240.45
2022-09-30T15:21:13.187Z,100238.73
2022-09-30T15:23:46.507Z,100243.13
2022-09-30T15:26:16.538Z,100247.64
2022-09-30T15:28:47.579Z,100243.34
2022-09-30T15:31:24.001Z,100241.69
2022-09-30T15:34:06.760Z,100240.91
2022-09-30T15:36:37.834Z,100244.48
2022-09-30T15:39:21.908Z,100243.64
2022-09-30T15:41:53.565Z,100245.53
2022-09-30T15:44:39.259Z,100239.51
2022-09-30T15:47:11.213Z,100246.55
2022-09-30T15:49:49.926Z,100246.65
2022-09-30T15:52:39.149Z,100255.48
2022-09-30T15:55:38.108Z,100248.63
2022-09-30T15:58:38.705Z,100244.35
2022-09-30T16:01:19.298Z,100253.11
2022-09-30T16:03:53.761Z,100255.82
2022-09-30T16:06:34.647Z,100261.11
2022-09-30T16:09:08.507Z,100263.78
2022-09-30T16:11:43.934Z,100261.22
2022-09-30T16:14:24.295Z,100270.93
2022-09-30T16:16:59.934Z,100275.38
2022-09-30T16:19:31.315Z,100263.28
2022-09-30T16:22:03.594Z,100275.52
2022-09-30T16:24:49.107Z,100279.95
2022-09-30T16:27:31.178Z,100285.23
2022-09-30T16:30:05.895Z,100291.39
2022-09-30T16:32:38.744Z,100289.72
2022-09-30T16:35:20.025Z,100294.99
2022-09-30T16:37:49.300Z,100295.97
2022-09-30T16:40:26.399Z,100300.39
2022-09-30T16:42:58.001Z,100308.32
2022-09-30T16:45:32.867Z,100309.25
2022-09-30T16:48:05.992Z,100315.41
2022-09-30T16:50:41.388Z,100313.69
2022-09-30T16:53:11.100Z,100314.66
2022-09-30T16:55:44.822Z,100315.55
2022-09-30T16:58:14.091Z,100318.24
2022-09-30T17:00:46.041Z,100315.66
2022-09-30T17:03:21.605Z,100311.37
2022-09-30T17:05:52.691Z,100307.07
2022-09-30T17:08:23.406Z,100312.33
2022-09-30T17:10:52.210Z,100312.38
2022-09-30T17:13:20.885Z,100317.64
2022-09-30T17:15:51.090Z,100315.95
2022-09-30T17:18:24.227Z,100324.67
2022-09-30T17:20:53.443Z,100323.83
2022-09-30T17:23:24.624Z,100320.38
2022-09-30T17:25:56.380Z,100316.91
2022-09-30T17:28:33.955Z,100316.95
2022-09-30T17:31:03.175Z,100318.72
2022-09-30T17:33:33.831Z,100312.66
2022-09-30T17:36:05.641Z,100318.77
2022-09-30T17:38:35.720Z,100328.36
2022-09-30T17:41:24.348Z,100324.91
2022-09-30T17:43:58.068Z,100324.09
2022-09-30T17:46:28.001Z,100329.32
2022-09-30T17:48:57.632Z,100332.81
2022-09-30T17:51:34.933Z,100329.32
2022-09-30T17:54:07.613Z,100323.25
2022-09-30T17:56:40.110Z,100335.42
2022-09-30T17:59:09.272Z,100338.92
2022-09-30T18:01:40.385Z,100337.19
2022-09-30T18:04:09.160Z,100338.08
2022-09-30T18:06:38.183Z,100339.84
2022-09-30T18:09:07.334Z,100332.89
2022-09-30T18:11:42.123Z,100338.11
2022-09-30T18:14:19.117Z,100340.72
2022-09-30T18:16:47.885Z,100331.16
2022-09-30T18:19:19.764Z,100325.98
2022-09-30T18:21:48.906Z,100330.31
2022-09-30T18:24:41.459Z,100326.83
2022-09-30T18:27:10.639Z,100324.25
2022-09-30T18:29:46.954Z,100323.41
2022-09-30T18:32:17.005Z,100327.73
2022-09-30T18:34:45.674Z,100326.86
2022-09-30T18:37:16.891Z,100323.37
2022-09-30T18:39:46.321Z,100323.41
2022-09-30T18:42:15.388Z,100319.91
2022-09-30T18:44:47.120Z,100332.08
2022-09-30T18:47:16.910Z,100332.96
2022-09-30T18:49:46.136Z,100325.13
2022-09-30T18:52:16.892Z,100327.78
2022-09-30T18:54:45.929Z,100338.22
2022-09-30T18:57:15.698Z,100335.61
2022-09-30T18:59:45.131Z,100336.52
2022-09-30T19:02:15.280Z,100329.58
2022-09-30T19:04:48.200Z,100327.84
2022-09-30T19:07:21.018Z,100327.00
2022-09-30T19:09:49.814Z,100330.53
2022-09-30T19:12:20.117Z,100330.53
2022-09-30T19:14:48.854Z,100331.41
2022-09-30T19:17:17.544Z,100341.86
2022-09-30T19:19:46.219Z,100338.43
2022-09-30T19:22:15.048Z,100341.92
2022-09-30T19:24:43.788Z,100338.43
2022-09-30T19:27:15.260Z,100339.31
2022-09-30T19:29:46.677Z,100334.12
2022-09-30T19:32:16.271Z,100335.89
2022-09-30T19:34:57.709Z,100333.28
2022-09-30T19:37:34.518Z,100337.66
2022-09-30T19:40:17.461Z,100337.66
2022-09-30T19:42:49.472Z,100335.08
2022-09-30T19:45:23.294Z,100347.24
2022-09-30T19:47:53.595Z,100357.64
2022-09-30T19:50:22.322Z,100364.62
2022-09-30T19:52:57.391Z,100355.92
2022-09-30T19:55:26.841Z,100352.46
2022-09-30T19:57:59.085Z,100355.95
2022-09-30T20:00:29.389Z,100347.28
2022-09-30T20:03:01.918Z,100357.71
2022-09-30T20:05:31.833Z,100350.80
2022-09-30T20:08:00.883Z,100341.24
2022-09-30T20:10:32.973Z,100333.42
2022-09-30T20:13:04.350Z,100322.13
2022-09-30T20:15:51.543Z,100329.08
2022-09-30T20:18:23.604Z,100331.69
2022-09-30T20:20:55.260Z,100328.20
2022-09-30T20:23:31.269Z,100334.30
2022-09-30T20:26:01.873Z,100350.83
2022-09-30T20:28:30.972Z,100344.73
2022-09-30T20:31:04.647Z,100339.52
2022-09-30T20:33:36.624Z,100325.63
2022-09-30T20:36:06.833Z,100336.09
2022-09-30T20:38:40.924Z,100333.48
2022-09-30T20:41:12.202Z,100333.52
2022-09-30T20:43:42.755Z,100336.97
2022-09-30T20:46:14.131Z,100346.56
2022-09-30T20:48:42.796Z,100346.56
2022-09-30T20:51:13.907Z,100335.24
2022-09-30T20:53:48.730Z,100331.78
2022-09-30T20:56:19.235Z,100326.60
2022-09-30T20:58:49.780Z,100330.09
2022-09-30T21:01:20.686Z,100328.36
2022-09-30T21:04:00.413Z,100329.20
2022-09-30T21:06:33.041Z,100323.14
2022-09-30T21:09:03.281Z,100322.30
2022-09-30T21:11:32.984Z,100320.56
2022-09-30T21:14:02.395Z,100314.50
2022-09-30T21:16:33.045Z,100319.72
2022-09-30T21:19:01.798Z,100317.99
2022-09-30T21:21:32.760Z,100324.09
2022-09-30T21:24:02.491Z,100325.81
2022-09-30T21:26:35.226Z,100324.09
2022-09-30T21:29:04.080Z,100324.09
2022-09-30T21:31:37.596Z,100320.60
2022-09-30T21:34:09.541Z,100322.36
2022-09-30T21:36:41.095Z,100303.22
2022-09-30T21:39:11.575Z,100298.89
2022-09-30T21:41:40.721Z,100309.32
2022-09-30T21:44:09.367Z,100303.26
2022-09-30T21:46:38.694Z,100307.63
2022-09-30T21:49:16.063Z,100309.35
2022-09-30T21:51:44.953Z,100310.23
2022-09-30T21:54:16.987Z,100312.84
2022-09-30T21:56:45.911Z,100311.11
2022-09-30T21:59:15.813Z,100308.50
2022-09-30T22:01:44.821Z,100311.11
2022-09-30T22:04:21.807Z,100311.14
2022-09-30T22:06:53.600Z,100315.48
2022-09-30T22:09:22.370Z,100318.09
2022-09-30T22:11:54.317Z,100319.00
2022-09-30T22:14:36.976Z,100313.78
2022-09-30T22:17:09.776Z,100318.15
2022-09-30T22:19:38.612Z,100312.91
2022-09-30T22:22:07.188Z,100320.76
2022-09-30T22:24:42.406Z,100320.76
2022-09-30T22:27:11.638Z,100319.88
2022-09-30T22:29:40.255Z,100321.64
2022-09-30T22:32:08.883Z,100319.06
2022-09-30T22:34:59.057Z,100323.42
2022-09-30T22:37:51.396Z,100323.45
2022-09-30T22:40:20.199Z,100316.52
2022-09-30T22:42:49.424Z,100318.24
2022-09-30T22:45:18.099Z,100326.09
2022-09-30T22:47:47.111Z,100316.54
2022-09-30T22:50:19.576Z,100323.52
2022-09-30T22:52:49.639Z,100318.33
2022-09-30T22:55:23.254Z,100321.81
2022-09-30T22:57:55.610Z,100326.18
2022-09-30T23:00:24.785Z,100323.58
2022-09-30T23:02:58.032Z,100324.42
2022-09-30T23:05:30.526Z,100331.36
2022-09-30T23:07:59.241Z,100327.03
2022-09-30T23:10:31.033Z,100329.63
2022-09-30T23:13:04.459Z,100327.94
2022-09-30T23:15:34.323Z,100318.42
2022-09-30T23:18:02.900Z,100323.62
2022-09-30T23:20:35.316Z,100327.98
2022-09-30T23:23:07.378Z,100318.47
2022-09-30T23:25:36.312Z,100320.23
2022-09-30T23:28:04.919Z,100325.47
2022-09-30T23:30:33.579Z,100323.74
2022-09-30T23:33:04.808Z,100319.41
2022-09-30T23:35:33.418Z,100312.47
2022-09-30T23:38:02.522Z,100313.34
2022-09-30T23:40:31.276Z,100309.00
2022-09-30T23:43:03.878Z,100304.70
2022-09-30T23:45:34.641Z,100298.61
2022-09-30T23:48:05.147Z,100297.77
2022-09-30T23:50:33.951Z,100295.16
2022-09-30T23:53:02.797Z,100304.73
2022-09-30T23:55:35.209Z,100301.27
2022-09-30T23:58:08.043Z,100305.61
